Erie International Tom Ridge Field
KERI : now visible

Aeroporto :











RITROVATECI SU...

 
LOGIN :

Iscrizione | Disclaimer

   EN    FR    IT 

 









Sommario :    VFR   VFR Marginale   IFR   IFR Intensivo   IFR Molto Intensivo
Visibilità : 
Base nubi : 
>= 8 km
>= 3000ft
5 / 8 km
1000 / 3000 ft
1500m / 5 km
500 / 1000 ft
800 / 1500m
200 / 500 ft
< 800m
< 200 ft
Simboli :   Temporali  Nebbia  Neve Forte  Precipitazioni Forti  Vento > 20 kt






- Altitudine del aeroporto : 733 ft
- Codice IATA : ERI


KERI - Erie International Tom Ridge Field

ULTIMO METAR :
  • 051312Z 22005KT 10SM BKN027 OVC038 20/15 A3007 RMK AO2 T02000150

METARs OBSOLETI :
  • 051251Z 26004KT 10SM SCT027 BKN033 20/14 A3007 RMK AO2 SLP181 T02000139
  • 051151Z AUTO VRB05KT 10SM BKN030 BKN038 20/13 A3006 RMK AO2 SLP177 70051 T02000133 10200 20178 51021
  • 051051Z AUTO 20007KT 10SM BKN026 OVC033 18/15 A3005 RMK AO2 SLP172 T01780150

TAF KERI
Valido dal 05 a 12 ore il 06 a 12 ore UTC


051127Z 0512/0612 24009KT P6SM VCSH SCT025 BKN035
TEMPO 0512/0514 BKN025
FM051400 28008KT P6SM SCT035
FM060100 25004KT P6SM FEW090
FM060400 17004KT P6SM FEW250
FIR KZOB / America del Nord



MetMap, La meteo Aeronautica in un colpo d'occhio ! - Copyright ORBIFLY Dicembre 2007 - Disclaimer

ORBIFLY MET'MAP TEAM :

Programmazione e sviluppo : Alexandra Zaïnal
Concezione : Baudouin d'Aumeries
Aiuto per la programmazione : Marc-Olivier Méhu
Supporto tecnico e logistico : Manuel Goepfert
Aiuto per la traduzione : Arnaldo La Scala

Contatto : metmap@orbifly.com




FONTI E CREDITI :

   NOAA       Earth
Advisory